createdAt,value
2018-07-03T00:01:29.014Z,97.40
2018-07-03T00:03:58.620Z,97.50
2018-07-03T00:06:27.969Z,97.70
2018-07-03T00:08:57.332Z,97.30
2018-07-03T00:11:27.817Z,97.30
2018-07-03T00:13:57.131Z,96.90
2018-07-03T00:16:32.577Z,97.40
2018-07-03T00:19:03.188Z,97.70
2018-07-03T00:21:32.430Z,98.20
2018-07-03T00:24:01.726Z,98.10
2018-07-03T00:26:30.938Z,98.90
2018-07-03T00:29:00.282Z,99.40
2018-07-03T00:31:29.659Z,99.40
2018-07-03T00:33:58.887Z,99.50
2018-07-03T00:36:28.205Z,99.80
2018-07-03T00:38:57.653Z,99.90
2018-07-03T00:41:27.184Z,99.90
2018-07-03T00:43:56.615Z,99.90
2018-07-03T00:46:25.885Z,99.90
2018-07-03T00:48:55.599Z,99.90
2018-07-03T00:51:24.868Z,99.90
2018-07-03T00:53:54.099Z,99.90
2018-07-03T00:56:24.025Z,99.90
2018-07-03T00:58:53.958Z,99.90
2018-07-03T01:01:23.368Z,99.90
2018-07-03T01:03:52.637Z,99.90
2018-07-03T01:06:21.916Z,99.90
2018-07-03T01:08:51.169Z,99.90
2018-07-03T01:11:20.438Z,99.90
2018-07-03T01:13:49.643Z,99.90
2018-07-03T01:16:19.656Z,99.90
2018-07-03T01:18:48.929Z,99.90
2018-07-03T01:21:18.349Z,99.90
2018-07-03T01:23:48.004Z,99.90
2018-07-03T01:26:17.927Z,99.90
2018-07-03T01:28:47.912Z,99.90
2018-07-03T01:31:17.157Z,99.90
2018-07-03T01:33:46.535Z,99.90
2018-07-03T01:36:15.829Z,99.90
2018-07-03T01:38:45.171Z,99.90
2018-07-03T01:41:15.424Z,99.90
2018-07-03T01:43:44.727Z,99.90
2018-07-03T01:46:14.659Z,99.90
2018-07-03T01:48:44.992Z,99.90
2018-07-03T01:51:15.915Z,99.90
2018-07-03T01:53:45.161Z,99.90
2018-07-03T01:56:14.560Z,99.90
2018-07-03T01:58:43.806Z,99.90
2018-07-03T02:01:13.764Z,99.90
2018-07-03T02:03:43.119Z,99.90
2018-07-03T02:06:13.102Z,99.90
2018-07-03T02:08:42.462Z,99.90
2018-07-03T02:11:11.695Z,99.90
2018-07-03T02:13:41.723Z,99.90
2018-07-03T02:16:11.072Z,99.90
2018-07-03T02:18:41.226Z,99.90
2018-07-03T02:21:10.614Z,99.90
2018-07-03T02:23:40.547Z,99.90
2018-07-03T02:26:09.773Z,99.90
2018-07-03T02:28:39.055Z,99.90
2018-07-03T02:31:08.369Z,99.90
2018-07-03T02:36:08.014Z,99.90
2018-07-03T02:38:37.281Z,99.90
2018-07-03T02:41:07.981Z,99.90
2018-07-03T02:43:37.950Z,99.90
2018-07-03T02:46:07.776Z,99.90
2018-07-03T02:48:37.116Z,99.90
2018-07-03T02:51:06.572Z,99.90
2018-07-03T02:53:36.527Z,99.90
2018-07-03T02:56:05.908Z,99.90
2018-07-03T02:58:35.173Z,99.90
2018-07-03T03:01:04.747Z,99.90
2018-07-03T03:03:34.019Z,99.90
2018-07-03T03:06:03.368Z,99.90
2018-07-03T03:08:32.621Z,99.90
2018-07-03T03:11:02.024Z,99.90
2018-07-03T03:13:31.270Z,99.90
2018-07-03T03:16:01.105Z,99.90
2018-07-03T03:18:30.489Z,99.90
2018-07-03T03:20:59.825Z,99.90
2018-07-03T03:23:29.070Z,99.90
2018-07-03T03:25:58.497Z,99.90
2018-07-03T03:28:27.716Z,99.90
2018-07-03T03:30:56.963Z,99.90
2018-07-03T03:33:26.371Z,99.90
2018-07-03T03:35:55.776Z,99.90
2018-07-03T03:38:25.026Z,99.90
2018-07-03T03:40:54.347Z,99.90
2018-07-03T03:43:23.524Z,99.90
2018-07-03T03:45:52.941Z,99.90
2018-07-03T03:48:22.241Z,99.90
2018-07-03T03:50:52.212Z,99.90
2018-07-03T03:53:21.572Z,99.90
2018-07-03T03:55:50.860Z,99.90
2018-07-03T03:58:20.096Z,99.90
2018-07-03T04:00:49.635Z,99.90
2018-07-03T04:03:19.140Z,99.90
2018-07-03T04:05:48.395Z,99.90
2018-07-03T04:08:18.356Z,99.90
2018-07-03T04:10:47.720Z,99.90
2018-07-03T04:13:17.009Z,99.90
2018-07-03T04:15:46.475Z,99.90
2018-07-03T04:18:21.709Z,99.90
2018-07-03T04:23:20.965Z,99.90
2018-07-03T04:25:50.346Z,99.90
2018-07-03T04:28:19.640Z,97.80
2018-07-03T04:30:49.199Z,95.40
2018-07-03T04:33:18.453Z,93.20
2018-07-03T04:35:48.328Z,91.60
2018-07-03T04:38:17.752Z,90.50
2018-07-03T04:40:47.038Z,87.30
2018-07-03T04:43:16.426Z,85.30
2018-07-03T04:45:46.191Z,84.20
2018-07-03T04:48:16.228Z,80.70
2018-07-03T04:50:45.505Z,79.70
2018-07-03T04:53:17.283Z,78.50
2018-07-03T04:55:48.148Z,76.10
2018-07-03T04:58:17.419Z,74.90
2018-07-03T05:00:46.846Z,74.80
2018-07-03T05:03:16.868Z,72.90
2018-07-03T05:05:46.159Z,71.20
2018-07-03T05:08:16.471Z,70.10
2018-07-03T05:10:45.783Z,68.50
2018-07-03T05:13:15.225Z,67.80
2018-07-03T05:15:44.484Z,66.50
2018-07-03T05:18:14.151Z,64.50
2018-07-03T05:20:43.431Z,63.10
2018-07-03T05:23:12.759Z,63.30
2018-07-03T05:25:42.633Z,62.30
2018-07-03T05:28:12.507Z,61.40
2018-07-03T05:30:42.223Z,62.30
2018-07-03T05:33:12.627Z,61.50
2018-07-03T05:35:42.019Z,61.30
2018-07-03T05:38:11.515Z,63.00
2018-07-03T05:40:41.015Z,65.30
2018-07-03T05:43:10.884Z,68.20
2018-07-03T05:45:40.257Z,70.90
2018-07-03T05:48:10.380Z,72.60
2018-07-03T05:50:39.701Z,74.20
2018-07-03T05:53:09.514Z,75.80
2018-07-03T05:55:39.052Z,77.60
2018-07-03T05:58:08.361Z,79.40
2018-07-03T06:00:38.338Z,80.50
2018-07-03T06:03:08.719Z,81.90
2018-07-03T06:05:38.025Z,82.40
2018-07-03T06:08:07.419Z,84.10
2018-07-03T06:10:37.140Z,85.60
2018-07-03T06:13:06.449Z,86.00
2018-07-03T06:15:35.853Z,86.30
2018-07-03T06:18:05.735Z,86.80
2018-07-03T06:20:35.465Z,87.80
2018-07-03T06:23:05.827Z,87.60
2018-07-03T06:25:36.531Z,88.10
2018-07-03T06:28:06.241Z,88.70
2018-07-03T06:30:36.372Z,88.50
2018-07-03T06:33:05.786Z,88.60
2018-07-03T06:35:35.706Z,88.90
2018-07-03T06:38:05.268Z,89.80
2018-07-03T06:40:35.096Z,89.10
2018-07-03T06:43:04.525Z,88.90
2018-07-03T06:45:33.800Z,88.90
2018-07-03T06:48:03.193Z,88.80
2018-07-03T06:50:32.761Z,88.40
2018-07-03T06:53:01.912Z,88.20
2018-07-03T06:55:31.210Z,88.10
2018-07-03T06:58:01.052Z,87.90
2018-07-03T07:00:31.808Z,87.90
2018-07-03T07:03:02.741Z,87.30
2018-07-03T07:05:32.019Z,86.70
2018-07-03T07:08:02.191Z,86.40
2018-07-03T07:10:32.348Z,85.00
2018-07-03T07:13:02.078Z,85.20
2018-07-03T07:15:31.487Z,84.80
2018-07-03T07:18:00.800Z,84.50
2018-07-03T07:20:30.834Z,82.50
2018-07-03T07:23:01.032Z,82.10
2018-07-03T07:25:30.536Z,80.30
2018-07-03T07:27:59.858Z,79.00
2018-07-03T07:30:29.379Z,78.20
2018-07-03T07:32:59.197Z,75.70
2018-07-03T07:35:28.549Z,75.40
2018-07-03T07:37:57.845Z,76.50
2018-07-03T07:40:27.279Z,76.00
2018-07-03T07:42:56.550Z,76.60
2018-07-03T07:45:25.862Z,78.40
2018-07-03T07:47:55.243Z,76.70
2018-07-03T07:50:24.579Z,76.60
2018-07-03T07:52:53.809Z,76.40
2018-07-03T07:55:23.138Z,75.30
2018-07-03T07:57:53.268Z,75.70
2018-07-03T08:00:22.867Z,75.40
2018-07-03T08:02:52.798Z,71.30
2018-07-03T08:05:22.139Z,72.40
2018-07-03T08:07:52.353Z,72.50
2018-07-03T08:10:21.697Z,70.60
2018-07-03T08:12:51.512Z,68.80
2018-07-03T08:15:21.007Z,67.80
2018-07-03T08:17:50.338Z,67.90
2018-07-03T08:20:19.618Z,66.20
2018-07-03T08:22:48.849Z,66.90
2018-07-03T08:25:18.971Z,69.30
2018-07-03T08:27:48.300Z,67.70
2018-07-03T08:30:17.647Z,65.00
2018-07-03T08:32:47.535Z,62.60
2018-07-03T08:35:17.281Z,61.70
2018-07-03T08:37:47.408Z,60.80
2018-07-03T08:40:16.760Z,60.80
2018-07-03T08:42:46.914Z,63.70
2018-07-03T08:45:16.311Z,62.90
2018-07-03T08:47:46.491Z,61.40
2018-07-03T08:50:15.854Z,61.60
2018-07-03T08:52:45.670Z,60.40
2018-07-03T08:55:15.570Z,59.30
2018-07-03T08:57:44.837Z,60.30
2018-07-03T09:00:14.138Z,59.80
2018-07-03T09:02:43.521Z,59.20
2018-07-03T09:05:14.205Z,58.50
2018-07-03T09:07:45.446Z,57.20
2018-07-03T09:10:15.171Z,57.60
2018-07-03T09:12:44.993Z,59.00
2018-07-03T09:15:14.364Z,58.30
2018-07-03T09:17:43.648Z,58.90
2018-07-03T09:20:12.958Z,59.10
2018-07-03T09:22:43.616Z,57.40
2018-07-03T09:27:42.320Z,56.90
2018-07-03T09:30:12.306Z,55.80
2018-07-03T09:32:41.740Z,55.90
2018-07-03T09:35:10.994Z,56.30
2018-07-03T09:37:40.387Z,57.70
2018-07-03T09:40:09.723Z,58.30
2018-07-03T09:42:39.104Z,57.10
2018-07-03T09:45:09.142Z,56.20
2018-07-03T09:47:38.533Z,54.80
2018-07-03T09:50:07.922Z,55.60
2018-07-03T09:52:37.404Z,56.30
2018-07-03T09:55:06.833Z,56.30
2018-07-03T09:57:36.130Z,55.90
2018-07-03T10:00:06.360Z,55.90
2018-07-03T10:02:35.695Z,54.00
2018-07-03T10:05:06.112Z,54.50
2018-07-03T10:07:36.264Z,53.40
2018-07-03T10:10:05.771Z,54.00
2018-07-03T10:12:35.152Z,52.80
2018-07-03T10:15:05.001Z,51.10
2018-07-03T10:17:35.164Z,51.20
2018-07-03T10:20:05.272Z,50.60
2018-07-03T10:22:34.795Z,49.00
2018-07-03T10:25:04.160Z,51.20
2018-07-03T10:27:33.672Z,51.60
2018-07-03T10:30:04.290Z,52.70
2018-07-03T10:32:33.812Z,53.80
2018-07-03T10:35:03.137Z,52.80
2018-07-03T10:37:32.562Z,49.80
2018-07-03T10:40:01.821Z,49.50
2018-07-03T10:42:32.095Z,51.70
2018-07-03T10:45:01.446Z,51.00
2018-07-03T10:47:31.799Z,51.60
2018-07-03T10:50:01.916Z,51.10
2018-07-03T10:52:31.383Z,50.90
2018-07-03T10:55:01.462Z,50.70
2018-07-03T10:57:31.666Z,49.60
2018-07-03T11:00:02.521Z,48.50
2018-07-03T11:02:32.744Z,48.90
2018-07-03T11:05:04.021Z,51.10
2018-07-03T11:07:33.333Z,50.70
2018-07-03T11:10:04.580Z,51.20
2018-07-03T11:12:34.997Z,51.30
2018-07-03T11:15:04.619Z,51.80
2018-07-03T11:17:34.584Z,50.60
2018-07-03T11:20:04.238Z,50.90
2018-07-03T11:22:33.605Z,52.10
2018-07-03T11:25:03.308Z,50.50
2018-07-03T11:27:32.666Z,50.10
2018-07-03T11:30:03.018Z,50.30
2018-07-03T11:32:32.403Z,50.40
2018-07-03T11:35:02.190Z,50.00
2018-07-03T11:37:32.945Z,51.10
2018-07-03T11:40:03.216Z,51.20
2018-07-03T11:42:32.518Z,51.80
2018-07-03T11:45:02.796Z,52.00
2018-07-03T11:47:32.663Z,52.40
2018-07-03T11:50:02.101Z,52.30
2018-07-03T11:52:32.012Z,51.00
2018-07-03T11:55:02.023Z,51.30
2018-07-03T11:57:31.442Z,51.10
2018-07-03T12:00:02.836Z,50.90
2018-07-03T12:02:32.843Z,50.00
2018-07-03T12:05:03.151Z,50.40
2018-07-03T12:07:32.741Z,51.40
2018-07-03T12:10:02.178Z,51.20
2018-07-03T12:12:31.760Z,50.10
2018-07-03T12:15:01.023Z,52.20
2018-07-03T12:17:30.928Z,50.10
2018-07-03T12:20:00.504Z,50.20
2018-07-03T12:22:31.242Z,51.30
2018-07-03T12:25:00.911Z,50.60
2018-07-03T12:27:30.898Z,49.60
2018-07-03T12:32:30.432Z,51.20
2018-07-03T12:35:00.409Z,50.00
2018-07-03T12:37:30.784Z,49.60
2018-07-03T12:40:00.876Z,50.50
2018-07-03T12:42:30.274Z,50.10
2018-07-03T12:45:00.707Z,49.60
2018-07-03T12:47:30.025Z,50.80
2018-07-03T12:50:00.031Z,50.50
2018-07-03T12:52:30.038Z,50.00
2018-07-03T12:54:59.334Z,49.40
2018-07-03T12:57:28.754Z,48.40
2018-07-03T12:59:58.537Z,48.20
2018-07-03T13:02:27.972Z,48.50
2018-07-03T13:04:57.451Z,49.00
2018-07-03T13:07:26.815Z,49.30
2018-07-03T13:09:56.187Z,48.80
2018-07-03T13:14:55.442Z,48.90
2018-07-03T13:17:24.975Z,47.50
2018-07-03T13:19:57.668Z,46.70
2018-07-03T13:22:27.228Z,49.40
2018-07-03T13:24:57.893Z,48.90
2018-07-03T13:27:28.194Z,52.50
2018-07-03T13:29:58.232Z,52.80
2018-07-03T13:32:29.093Z,52.20
2018-07-03T13:34:58.498Z,52.60
2018-07-03T13:37:28.795Z,52.90
2018-07-03T13:39:58.946Z,52.80
2018-07-03T13:42:30.490Z,51.70
2018-07-03T13:44:59.835Z,52.10
2018-07-03T13:47:29.282Z,52.50
2018-07-03T13:49:59.059Z,53.60
2018-07-03T13:52:28.365Z,51.80
2018-07-03T13:54:57.707Z,52.40
2018-07-03T13:57:27.470Z,53.30
2018-07-03T13:59:56.809Z,52.00
2018-07-03T14:04:56.837Z,51.80
2018-07-03T14:07:26.330Z,50.90
2018-07-03T14:09:55.696Z,50.40
2018-07-03T14:12:25.796Z,52.10
2018-07-03T14:14:55.674Z,53.20
2018-07-03T14:17:25.027Z,53.50
2018-07-03T14:19:54.963Z,52.80
2018-07-03T14:22:24.396Z,51.40
2018-07-03T14:24:54.243Z,52.70
2018-07-03T14:27:24.354Z,51.30
2018-07-03T14:29:53.698Z,51.40
2018-07-03T14:32:23.168Z,51.20
2018-07-03T14:34:53.320Z,52.60
2018-07-03T14:37:22.653Z,51.90
2018-07-03T14:39:52.186Z,52.30
2018-07-03T14:42:22.845Z,51.40
2018-07-03T14:44:52.604Z,51.10
2018-07-03T14:47:22.070Z,50.90
2018-07-03T14:49:52.251Z,51.10
2018-07-03T14:52:21.747Z,52.00
2018-07-03T14:54:51.213Z,52.10
2018-07-03T14:57:21.321Z,51.20
2018-07-03T14:59:50.709Z,51.00
2018-07-03T15:02:20.678Z,51.30
2018-07-03T15:04:49.961Z,51.20
2018-07-03T15:07:19.472Z,50.80
2018-07-03T15:09:49.904Z,51.30
2018-07-03T15:12:19.330Z,50.70
2018-07-03T15:14:48.917Z,50.90
2018-07-03T15:17:18.766Z,51.90
2018-07-03T15:19:53.588Z,51.30
2018-07-03T15:22:23.055Z,50.60
2018-07-03T15:24:52.856Z,51.60
2018-07-03T15:27:22.158Z,51.40
2018-07-03T15:29:51.559Z,51.00
2018-07-03T15:32:21.089Z,50.10
2018-07-03T15:34:50.674Z,50.30
2018-07-03T15:37:20.270Z,50.60
2018-07-03T15:39:50.038Z,51.30
2018-07-03T15:42:19.445Z,52.00
2018-07-03T15:45:00.233Z,51.70
2018-07-03T15:47:29.715Z,50.80
2018-07-03T15:49:59.174Z,50.20
2018-07-03T15:52:28.806Z,51.20
2018-07-03T15:54:58.319Z,51.20
2018-07-03T15:57:28.045Z,50.70
2018-07-03T15:59:58.121Z,50.90
2018-07-03T16:02:27.518Z,50.80
2018-07-03T16:05:09.624Z,51.40
2018-07-03T16:09:03.176Z,50.50
2018-07-03T16:11:32.544Z,50.60
2018-07-03T16:14:01.990Z,50.40
2018-07-03T16:16:31.446Z,50.50
2018-07-03T16:19:06.103Z,51.00
2018-07-03T16:21:36.015Z,50.20
2018-07-03T16:24:05.475Z,50.60
2018-07-03T16:26:35.411Z,50.00
2018-07-03T16:29:07.618Z,50.70
2018-07-03T16:31:37.044Z,50.40
2018-07-03T16:34:06.773Z,50.40
2018-07-03T16:36:37.471Z,49.50
2018-07-03T16:39:10.075Z,50.20
2018-07-03T16:41:40.004Z,51.10
2018-07-03T16:44:10.326Z,50.20
2018-07-03T16:46:40.363Z,50.30
2018-07-03T16:49:09.833Z,51.90
2018-07-03T16:51:39.368Z,50.00
2018-07-03T16:56:37.860Z,50.40
2018-07-03T16:59:07.976Z,49.70
2018-07-03T17:01:37.410Z,49.00
2018-07-03T17:04:06.819Z,48.70
2018-07-03T17:06:36.269Z,50.40
2018-07-03T17:09:09.114Z,50.10
2018-07-03T17:11:38.669Z,49.30
2018-07-03T17:14:09.797Z,48.60
2018-07-03T17:16:40.560Z,48.80
2018-07-03T17:19:15.496Z,49.40
2018-07-03T17:24:14.024Z,48.90
2018-07-03T17:26:44.064Z,46.60
2018-07-03T17:29:14.202Z,47.70
2018-07-03T17:31:43.622Z,48.10
2018-07-03T17:34:13.525Z,46.80
2018-07-03T17:36:43.660Z,46.70
2018-07-03T17:39:17.300Z,45.90
2018-07-03T17:41:58.024Z,46.80
2018-07-03T17:45:33.833Z,47.40
2018-07-03T17:48:05.740Z,47.00
2018-07-03T17:50:37.471Z,47.40
2018-07-03T17:53:07.456Z,46.90
2018-07-03T17:55:37.135Z,48.00
2018-07-03T17:58:07.175Z,47.40
2018-07-03T18:00:36.574Z,47.80
2018-07-03T18:03:06.181Z,47.10
2018-07-03T18:05:37.494Z,47.00
2018-07-03T18:08:07.634Z,46.80
2018-07-03T18:10:37.159Z,47.20
2018-07-03T18:13:06.698Z,46.90
2018-07-03T18:18:08.675Z,46.60
2018-07-03T18:20:38.579Z,46.70
2018-07-03T18:23:08.554Z,47.70
2018-07-03T18:25:39.006Z,47.60
2018-07-03T18:28:08.917Z,46.80
2018-07-03T18:30:38.263Z,47.10
2018-07-03T18:33:08.260Z,46.60
2018-07-03T18:35:38.196Z,46.80
2018-07-03T18:38:08.070Z,47.80
2018-07-03T18:40:38.267Z,48.10
2018-07-03T18:43:08.644Z,50.10
2018-07-03T18:45:39.056Z,51.70
2018-07-03T18:48:09.548Z,51.40
2018-07-03T18:50:39.561Z,50.10
2018-07-03T18:53:09.416Z,52.80
2018-07-03T18:55:39.410Z,56.00
2018-07-03T18:58:09.123Z,55.10
2018-07-03T19:00:38.901Z,55.00
2018-07-03T19:03:08.688Z,55.30
2018-07-03T19:05:38.374Z,57.40
2018-07-03T19:08:08.528Z,57.90
2018-07-03T19:10:37.837Z,59.50
2018-07-03T19:13:07.720Z,58.80
2018-07-03T19:15:38.228Z,63.50
2018-07-03T19:18:08.463Z,66.30
2018-07-03T19:20:38.418Z,65.80
2018-07-03T19:23:08.169Z,64.70
2018-07-03T19:25:41.187Z,65.70
2018-07-03T19:28:11.403Z,65.00
2018-07-03T19:30:42.282Z,72.50
2018-07-03T19:33:12.665Z,68.40
2018-07-03T19:35:42.596Z,66.20
2018-07-03T19:38:12.620Z,66.90
2018-07-03T19:40:42.087Z,66.60
2018-07-03T19:43:25.778Z,66.50
2018-07-03T19:45:57.665Z,67.50
2018-07-03T19:48:27.952Z,67.20
2018-07-03T19:50:58.873Z,69.20
2018-07-03T19:53:30.673Z,69.70
2018-07-03T19:56:01.590Z,69.40
2018-07-03T19:58:31.970Z,71.60
2018-07-03T20:01:03.219Z,72.10
2018-07-03T20:03:33.754Z,73.10
2018-07-03T20:06:04.210Z,76.60
2018-07-03T20:08:34.347Z,72.60
2018-07-03T20:11:04.701Z,74.10
2018-07-03T20:13:34.992Z,74.10
2018-07-03T20:16:05.658Z,73.40
2018-07-03T20:18:35.782Z,73.20
2018-07-03T20:21:08.079Z,72.80
2018-07-03T20:23:40.165Z,74.90
2018-07-03T20:26:11.968Z,73.90
2018-07-03T20:28:42.124Z,75.70
2018-07-03T20:31:14.228Z,75.40
2018-07-03T20:33:44.570Z,76.70
2018-07-03T20:36:17.712Z,76.70
2018-07-03T20:38:47.949Z,77.70
2018-07-03T20:41:17.922Z,77.30
2018-07-03T20:43:48.231Z,77.70
2018-07-03T20:48:47.310Z,81.90
2018-07-03T20:51:17.626Z,80.10
2018-07-03T20:53:47.039Z,81.00
2018-07-03T20:56:16.535Z,82.20
2018-07-03T20:58:45.979Z,81.30
2018-07-03T21:01:15.646Z,79.40
2018-07-03T21:03:45.875Z,81.40
2018-07-03T21:06:16.164Z,82.40
2018-07-03T21:11:16.119Z,85.80
2018-07-03T21:13:45.675Z,83.00
2018-07-03T21:16:15.896Z,83.30
2018-07-03T21:18:46.537Z,84.30
2018-07-03T21:21:17.173Z,87.00
2018-07-03T21:26:17.142Z,84.20
2018-07-03T21:28:48.002Z,85.40
2018-07-03T21:31:19.601Z,87.00
2018-07-03T21:33:50.191Z,85.40
2018-07-03T21:36:20.322Z,86.10
2018-07-03T21:38:50.111Z,86.70
2018-07-03T21:41:21.113Z,86.50
2018-07-03T21:46:19.972Z,91.40
2018-07-03T21:48:49.880Z,90.60
2018-07-03T21:51:19.935Z,90.40
2018-07-03T21:53:49.790Z,90.20
2018-07-03T21:56:19.465Z,90.20
2018-07-03T21:58:51.053Z,91.50
2018-07-03T22:01:21.888Z,92.30
2018-07-03T22:03:52.772Z,91.40
2018-07-03T22:06:22.114Z,92.10
2018-07-03T22:08:52.414Z,92.50
2018-07-03T22:11:22.206Z,92.70
2018-07-03T22:13:52.283Z,92.50
2018-07-03T22:16:22.916Z,93.60
2018-07-03T22:18:52.803Z,92.80
2018-07-03T22:21:25.340Z,93.00
2018-07-03T22:23:55.063Z,93.30
2018-07-03T22:26:24.435Z,93.60
2018-07-03T22:28:54.713Z,94.00
2018-07-03T22:31:24.990Z,94.00
2018-07-03T22:33:54.306Z,93.90
2018-07-03T22:36:23.588Z,95.20
2018-07-03T22:38:54.593Z,95.20
2018-07-03T22:41:25.134Z,93.20
2018-07-03T22:43:57.706Z,92.90
2018-07-03T22:46:28.728Z,93.40
2018-07-03T22:48:58.324Z,94.10
2018-07-03T22:51:29.978Z,94.00
2018-07-03T22:53:59.191Z,94.60
2018-07-03T22:56:28.693Z,96.80
2018-07-03T22:58:58.366Z,95.00
2018-07-03T23:01:28.111Z,95.40
2018-07-03T23:03:57.452Z,95.30
2018-07-03T23:06:26.813Z,95.20
2018-07-03T23:08:56.733Z,95.30
2018-07-03T23:11:26.005Z,99.90
2018-07-03T23:13:55.514Z,97.90
2018-07-03T23:16:25.520Z,98.30
2018-07-03T23:18:54.767Z,97.10
2018-07-03T23:21:25.046Z,98.60
2018-07-03T23:23:54.795Z,97.90
2018-07-03T23:26:24.468Z,97.70
2018-07-03T23:28:54.551Z,97.00
2018-07-03T23:31:24.462Z,98.10
2018-07-03T23:33:53.680Z,98.10
2018-07-03T23:36:23.881Z,98.70
2018-07-03T23:38:54.819Z,98.50
2018-07-03T23:41:30.183Z,98.90
2018-07-03T23:44:00.388Z,98.20
2018-07-03T23:46:41.735Z,98.20
2018-07-03T23:49:30.368Z,98.90
2018-07-03T23:52:17.028Z,99.00
2018-07-03T23:55:04.345Z,99.00
2018-07-03T23:57:50.737Z,99.10
